Time;durP1;ratioP1;P1;durP2;ratioP2;P2;SDS_P1;SDS_P2;PMS_P1;PMS_P2;Temp;Humidity;BMP_temperature;BMP_pressure;BME280_temperature;BME280_humidity;BME280_pressure;Samples;Min_cycle;Max_cycle;Signal;HPM_P1;HPM_P2
2021/12/13 00:00:20;;;;;;;13.20;4.95;;;;;;;-2.76;100.00;101658.91;5071471;28;20147;-63
2021/12/13 00:02:55;;;;;;;11.48;5.57;;;;;;;-2.79;100.00;101656.31;5071496;28;20131;-64
2021/12/13 00:05:30;;;;;;;14.50;3.90;;;;;;;-2.81;100.00;101654.59;5071487;28;20517;-64
2021/12/13 00:08:00;;;;;;;7.40;3.58;;;;;;;-2.81;100.00;101649.50;5071504;28;20135;-64
2021/12/13 00:10:34;;;;;;;7.45;3.53;;;;;;;-2.85;100.00;101663.88;5071380;28;20048;-64
2021/12/13 00:13:08;;;;;;;3.63;2.20;;;;;;;-2.85;100.00;101653.69;5071160;28;20562;-62
2021/12/13 00:15:43;;;;;;;6.88;4.22;;;;;;;-2.86;100.00;101657.91;5071250;28;20075;-62
2021/12/13 00:18:18;;;;;;;6.65;4.28;;;;;;;-2.86;100.00;101657.06;5071739;28;20048;-64
2021/12/13 00:20:51;;;;;;;6.32;3.33;;;;;;;-2.83;100.00;101652.00;5071235;28;20040;-64
2021/12/13 00:23:22;;;;;;;10.90;4.82;;;;;;;-2.81;100.00;101652.88;5071549;28;20059;-65
2021/12/13 00:25:52;;;;;;;10.50;5.00;;;;;;;-2.77;100.00;101659.75;5071193;28;20049;-64
2021/12/13 00:28:21;;;;;;;15.27;7.13;;;;;;;-2.73;100.00;101650.44;5074520;28;20144;-64
2021/12/13 00:31:00;;;;;;;9.70;5.20;;;;;;;-2.72;100.00;101653.03;5074867;28;20143;-67
2021/12/13 00:33:36;;;;;;;5.25;4.10;;;;;;;-2.78;100.00;101652.06;5074852;28;20048;-65
2021/12/13 00:36:09;;;;;;;5.55;3.45;;;;;;;-2.80;100.00;101651.19;5074967;28;20154;-64
2021/12/13 00:38:42;;;;;;;7.57;3.97;;;;;;;-2.78;100.00;101652.06;5075150;28;20132;-64
2021/12/13 00:41:15;;;;;;;12.25;6.55;;;;;;;-2.77;100.00;101647.00;5075279;28;20143;-66
2021/12/13 00:43:48;;;;;;;13.77;6.72;;;;;;;-2.75;100.00;101649.56;5074933;28;20068;-64
2021/12/13 00:46:17;;;;;;;11.30;6.78;;;;;;;-2.78;100.00;101652.91;5075046;28;20171;-66
2021/12/13 00:48:48;;;;;;;4.40;3.17;;;;;;;-2.80;100.00;101654.63;5074740;28;20528;-68
2021/12/13 00:51:20;;;;;;;7.28;3.50;;;;;;;-2.79;100.00;101652.91;5074965;28;20131;-67
2021/12/13 00:53:49;;;;;;;7.78;4.80;;;;;;;-2.85;100.00;101652.00;5074464;28;20135;-64
2021/12/13 00:56:53;;;;;;;10.15;5.65;;;;;;;-2.85;100.00;101646.06;5074440;28;20483;-64
2021/12/13 00:59:25;;;;;;;7.57;4.05;;;;;;;-2.86;100.00;101660.44;5074365;28;20099;-67
2021/12/13 01:01:58;;;;;;;3.40;2.58;;;;;;;-2.91;100.00;101648.50;5074346;28;20045;-65
2021/12/13 01:04:48;;;;;;;8.13;5.18;;;;;;;-2.87;100.00;101653.66;5074293;28;20542;-63
2021/12/13 01:07:48;;;;;;;3.15;1.80;;;;;;;-2.86;100.00;101655.34;5074586;28;20072;-64
2021/12/13 01:11:04;;;;;;;13.63;7.07;;;;;;;-2.83;100.00;101646.06;5069667;28;20045;-64
2021/12/13 01:13:35;;;;;;;3.78;2.83;;;;;;;-2.77;100.00;101647.00;5060346;28;20070;-64
2021/12/13 01:16:14;;;;;;;9.23;5.78;;;;;;;-2.77;100.00;101636.81;5073982;28;20044;-65
2021/12/13 01:19:01;;;;;;;11.40;5.82;;;;;;;-2.77;100.00;101634.28;5074065;28;20049;-65
2021/12/13 01:21:38;;;;;;;;;;;;;;;-2.77;100.00;101625.78;5074315;28;20144;-64
2021/12/13 01:24:11;;;;;;;6.43;3.88;;;;;;;-2.82;100.00;101627.41;5074136;28;19920;-65
2021/12/13 01:26:41;;;;;;;4.97;3.13;;;;;;;-2.86;100.00;101622.25;5074156;28;20156;-64
2021/12/13 01:29:10;;;;;;;6.40;3.97;;;;;;;-2.85;100.00;101628.22;5073796;28;20062;-65
2021/12/13 01:31:40;;;;;;;13.25;6.22;;;;;;;-2.84;100.00;101619.75;5073831;28;20049;-66
2021/12/13 01:34:11;;;;;;;13.02;6.63;;;;;;;-2.85;100.00;101613.78;5073877;28;20090;-63
2021/12/13 01:36:45;;;;;;;9.38;5.22;;;;;;;-2.83;100.00;101612.94;5073585;28;20049;-66
2021/12/13 01:39:15;;;;;;;7.15;4.20;;;;;;;-2.81;100.00;101604.50;5073632;28;20071;-70
2021/12/13 01:41:46;;;;;;;12.95;6.32;;;;;;;-2.82;100.00;101607.03;5074780;28;20059;-63
2021/12/13 01:44:16;;;;;;;9.30;5.63;;;;;;;-2.81;100.00;101611.28;5073643;28;20076;-64
2021/12/13 01:46:46;;;;;;;2.72;2.13;;;;;;;-2.79;100.00;101607.06;5074457;28;20135;-64
2021/12/13 01:49:16;;;;;;;6.35;3.22;;;;;;;-2.84;100.00;101609.56;5073852;28;20159;-66
2021/12/13 01:51:44;;;;;;;7.57;5.05;;;;;;;-2.86;100.00;101604.41;5073594;28;20108;-63
2021/12/13 01:54:15;;;;;;;11.52;5.47;;;;;;;-2.83;100.00;101598.50;5073355;28;20078;-74
2021/12/13 01:56:52;;;;;;;10.10;6.68;;;;;;;-2.81;100.00;101588.34;5073029;28;20135;-74
2021/12/13 02:02:20;;;;;;;12.32;6.60;;;;;;;-2.73;100.00;101579.13;5073500;28;20067;-72
2021/12/13 02:04:58;;;;;;;4.70;3.10;;;;;;;-2.71;100.00;101580.00;5074110;28;20478;-66
2021/12/13 02:07:28;;;;;;;12.45;6.75;;;;;;;-2.75;100.00;101568.06;5074050;28;20051;-66
2021/12/13 02:09:58;;;;;;;8.65;4.88;;;;;;;-2.69;100.00;101563.06;5073301;28;20135;-62
2021/12/13 02:12:30;;;;;;;11.82;6.22;;;;;;;-2.69;100.00;101563.91;5072592;28;20052;-63
2021/12/13 02:17:41;;;;;;;7.70;4.32;;;;;;;-2.84;100.00;101581.53;5072788;28;20529;-64
2021/12/13 02:20:18;;;;;;;13.77;7.07;;;;;;;-2.83;100.00;101590.03;5072756;28;20083;-70
2021/12/13 02:22:47;;;;;;;;;;;;;;;-2.80;100.00;101584.97;5073160;28;20056;-64
2021/12/13 02:25:20;;;;;;;10.05;4.63;;;;;;;-2.77;100.00;101578.25;5072730;28;19963;-64
2021/12/13 02:27:52;;;;;;;5.22;3.63;;;;;;;-2.76;100.00;101574.84;5072763;28;20372;-64
2021/12/13 02:30:25;;;;;;;11.45;5.75;;;;;;;-2.78;100.00;101573.97;5072526;28;20478;-63
2021/12/13 02:32:52;;;;;;;10.82;5.38;;;;;;;-2.77;100.00;101587.56;5072460;28;20143;-64
2021/12/13 02:35:23;;;;;;;7.43;4.72;;;;;;;-2.78;100.00;101573.97;5072386;28;20044;-63
2021/12/13 02:37:51;;;;;;;10.95;5.32;;;;;;;-2.81;100.00;101573.06;5072486;28;20048;-68
2021/12/13 02:40:21;;;;;;;7.50;5.05;;;;;;;-2.79;100.00;101577.34;5072873;28;20151;-63
2021/12/13 02:42:50;;;;;;;8.85;4.95;;;;;;;-2.77;100.00;101569.75;5072578;28;20083;-63
2021/12/13 02:45:20;;;;;;;9.13;5.18;;;;;;;-2.74;100.00;101567.22;5072313;28;20151;-61
2021/12/13 02:47:56;;;;;;;2.67;2.35;;;;;;;-2.77;100.00;101567.19;5072253;28;20048;-62
2021/12/13 02:50:33;;;;;;;8.73;4.77;;;;;;;-2.81;100.00;101556.09;5071778;28;20076;-64
2021/12/13 02:53:02;;;;;;;4.30;3.00;;;;;;;-2.80;100.00;101551.84;5072151;28;20778;-63
2021/12/13 02:55:31;;;;;;;6.38;4.35;;;;;;;-2.81;100.00;101552.69;5072222;28;20047;-64
2021/12/13 02:58:01;;;;;;;4.50;3.55;;;;;;;-2.89;100.00;101552.59;5072263;28;20041;-64
2021/12/13 03:00:37;;;;;;;9.90;5.18;;;;;;;-2.90;100.00;101548.34;5072198;28;20135;-65
2021/12/13 03:03:09;;;;;;;8.80;6.20;;;;;;;-2.85;100.00;101560.31;5072315;28;20087;-65
2021/12/13 03:05:40;;;;;;;8.27;4.30;;;;;;;-2.82;100.00;101553.56;5072236;28;20139;-64
2021/12/13 03:08:13;;;;;;;7.70;4.90;;;;;;;-2.86;100.00;101548.38;5071998;28;20613;-65
2021/12/13 03:10:48;;;;;;;5.97;3.78;;;;;;;-2.87;100.00;101544.16;5071951;28;20534;-63
2021/12/13 03:13:16;;;;;;;8.63;4.07;;;;;;;-2.87;100.00;101535.66;5072285;28;20143;-64
2021/12/13 03:15:47;;;;;;;8.75;4.68;;;;;;;-2.83;100.00;101534.00;5071963;28;20139;-66
2021/12/13 03:18:19;;;;;;;7.50;3.60;;;;;;;-2.82;100.00;101535.72;5071976;28;20557;-67
2021/12/13 03:21:25;;;;;;;7.70;5.07;;;;;;;-2.87;100.00;101531.41;5071906;28;20561;-62
2021/12/13 03:24:23;;;;;;;3.30;2.45;;;;;;;-2.85;100.00;101529.75;5049509;28;20132;-65
2021/12/13 03:27:34;;;;;;;10.85;5.50;;;;;;;-2.82;100.00;101536.56;5070214;28;20139;-63
2021/12/13 03:30:06;;;;;;;5.97;3.42;;;;;;;-2.80;100.00;101534.91;5043744;28;20486;-63
2021/12/13 03:32:38;;;;;;;8.63;4.82;;;;;;;-2.75;100.00;101538.38;5072066;28;20127;-64
2021/12/13 03:35:12;;;;;;;10.35;6.22;;;;;;;-2.76;100.00;101536.63;5071874;28;20538;-63
2021/12/13 03:37:40;;;;;;;10.05;6.15;;;;;;;-2.79;100.00;101530.66;5071890;28;20048;-63
2021/12/13 03:40:18;;;;;;;9.20;4.15;;;;;;;-2.78;100.00;101530.66;5071653;28;20143;-64
2021/12/13 03:42:49;;;;;;;7.97;4.28;;;;;;;-2.78;100.00;101535.75;5071584;28;20052;-63
2021/12/13 03:45:19;;;;;;;8.55;5.38;;;;;;;-2.82;100.00;101531.47;5071791;28;20045;-63
2021/12/13 03:47:51;;;;;;;9.35;5.32;;;;;;;-2.82;100.00;101528.09;5071769;28;20049;-63
2021/12/13 03:50:26;;;;;;;8.55;4.82;;;;;;;-2.79;100.00;101523.03;5071623;28;20109;-64
2021/12/13 03:52:56;;;;;;;8.57;4.90;;;;;;;-2.78;100.00;101522.16;5071897;28;20076;-64
2021/12/13 03:55:27;;;;;;;7.10;4.57;;;;;;;-2.77;100.00;101526.44;5071857;28;20080;-63
2021/12/13 03:57:59;;;;;;;5.40;3.53;;;;;;;-2.82;100.00;101517.88;5071720;28;20136;-63
2021/12/13 04:00:29;;;;;;;8.70;4.80;;;;;;;-2.84;100.00;101520.41;5072686;28;20071;-63
2021/12/13 04:02:58;;;;;;;10.75;5.63;;;;;;;-2.82;100.00;101515.34;5075488;28;20139;-66
2021/12/13 04:05:28;;;;;;;4.93;3.67;;;;;;;-2.77;100.00;101516.25;5075554;28;20135;-64
2021/12/13 04:08:00;;;;;;;8.48;4.93;;;;;;;-2.78;100.00;101505.19;5075476;28;20055;-63
2021/12/13 04:10:32;;;;;;;6.10;3.60;;;;;;;-2.83;100.00;101509.38;5075307;28;20490;-64
2021/12/13 04:13:08;;;;;;;7.75;4.57;;;;;;;-2.85;100.00;101514.47;5075272;28;20049;-64
2021/12/13 04:15:52;;;;;;;7.88;5.30;;;;;;;-2.85;100.00;101506.81;5075220;28;20046;-63
2021/12/13 04:18:30;;;;;;;5.47;4.32;;;;;;;-2.87;100.00;101497.44;5075252;28;20052;-74
2021/12/13 04:21:02;;;;;;;9.13;4.63;;;;;;;-2.86;100.00;101497.44;5075239;28;20078;-64
2021/12/13 04:23:30;;;;;;;11.90;6.38;;;;;;;-2.88;100.00;101501.69;5074863;28;20517;-63
2021/12/13 04:26:01;;;;;;;;;;;;;;;-2.83;100.00;101498.34;5075563;28;20139;-64
2021/12/13 04:28:38;;;;;;;9.07;5.50;;;;;;;-2.82;100.00;101497.50;5075335;28;19942;-74
2021/12/13 04:31:08;;;;;;;;;;;;;;;-2.80;100.00;101488.19;5075404;28;20128;-63
2021/12/13 04:33:38;;;;;;;6.88;4.55;;;;;;;-2.85;100.00;101490.69;5074842;28;20022;-69
2021/12/13 04:36:08;;;;;;;9.35;5.65;;;;;;;-2.88;100.00;101483.00;5074827;28;20131;-66
2021/12/13 04:38:47;;;;;;;14.95;6.55;;;;;;;-2.85;100.00;101473.72;5074707;28;20051;-64
2021/12/13 04:41:22;;;;;;;8.85;5.38;;;;;;;-2.80;100.00;101473.78;5075182;28;20049;-65
2021/12/13 04:43:49;;;;;;;11.30;7.30;;;;;;;-2.79;100.00;101470.38;5074685;28;20143;-64
2021/12/13 04:46:19;;;;;;;7.88;5.38;;;;;;;-2.75;99.88;101471.25;5074815;28;20150;-67
2021/12/13 04:48:47;;;;;;;13.23;6.95;;;;;;;-2.76;100.00;101462.75;5074620;28;20070;-67
2021/12/13 04:51:17;;;;;;;10.88;6.00;;;;;;;-2.77;100.00;101461.06;5074351;28;20509;-70
2021/12/13 04:53:47;;;;;;;5.38;3.38;;;;;;;-2.74;100.00;101455.16;5074301;28;20562;-71
2021/12/13 04:56:19;;;;;;;3.88;3.03;;;;;;;-2.77;99.75;101467.84;5074751;28;20101;-72
2021/12/13 04:58:49;;;;;;;9.73;4.85;;;;;;;-2.81;99.71;101464.41;5074593;28;20050;-72
2021/12/13 05:01:19;;;;;;;11.55;6.80;;;;;;;-2.81;100.00;101456.75;5074477;28;20044;-75
2021/12/13 05:03:49;;;;;;;4.72;3.72;;;;;;;-2.76;99.97;101452.56;5074425;28;20056;-71
2021/12/13 05:06:19;;;;;;;11.45;7.10;;;;;;;-2.78;100.00;101451.69;5074215;28;20079;-65
2021/12/13 05:08:49;;;;;;;13.77;8.23;;;;;;;-2.77;100.00;101455.13;5073798;28;20044;-76
2021/12/13 05:11:18;;;;;;;9.88;5.90;;;;;;;-2.76;99.96;101456.81;5074188;28;20045;-68
2021/12/13 05:13:50;;;;;;;11.70;7.45;;;;;;;-2.72;99.50;101451.78;5073167;28;20401;-68
2021/12/13 05:16:20;;;;;;;12.38;7.07;;;;;;;-2.73;99.58;101451.75;5073789;28;20139;-62
2021/12/13 05:18:51;;;;;;;10.85;6.10;;;;;;;-2.72;99.38;101454.31;5073651;28;20139;-64
2021/12/13 05:21:25;;;;;;;11.95;5.60;;;;;;;-2.72;99.49;101449.22;5073715;28;20136;-67
2021/12/13 05:23:55;;;;;;;8.68;5.60;;;;;;;-2.77;99.28;101455.97;5073992;28;20067;-67
2021/12/13 05:26:33;;;;;;;9.27;5.53;;;;;;;-2.80;99.95;101448.31;5073536;28;20048;-67
2021/12/13 05:29:02;;;;;;;16.00;7.55;;;;;;;-2.77;100.00;101450.88;5073617;28;20046;-69
2021/12/13 05:31:30;;;;;;;10.85;6.43;;;;;;;-2.69;99.70;101445.88;5073619;28;20045;-66
2021/12/13 05:34:01;;;;;;;6.85;4.43;;;;;;;-2.72;99.60;101439.03;5073572;28;20079;-67
2021/12/13 05:36:30;;;;;;;7.50;4.15;;;;;;;-2.73;99.35;101439.88;5073647;28;20573;-66
2021/12/13 05:39:08;;;;;;;8.23;4.05;;;;;;;-2.75;99.53;101440.69;5073579;28;20082;-65
2021/12/13 05:41:37;;;;;;;12.70;6.55;;;;;;;-2.80;99.62;101434.69;5073339;28;20144;-63
2021/12/13 05:44:07;;;;;;;7.80;3.95;;;;;;;-2.78;99.88;101431.31;5073494;28;20474;-63
2021/12/13 05:46:37;;;;;;;12.23;5.93;;;;;;;-2.81;99.64;101436.38;5073749;28;20068;-64
2021/12/13 05:49:08;;;;;;;15.02;7.10;;;;;;;-2.88;99.82;101424.41;5073242;28;20136;-64
2021/12/13 05:51:38;;;;;;;6.97;4.75;;;;;;;-2.81;99.75;101427.91;5073214;28;20106;-63
2021/12/13 05:54:10;;;;;;;4.13;3.08;;;;;;;-2.86;99.94;101438.88;5073208;28;20074;-63
2021/12/13 05:56:42;;;;;;;7.65;4.05;;;;;;;-2.85;100.00;101429.56;5073560;28;20144;-62
2021/12/13 05:59:14;;;;;;;9.77;5.88;;;;;;;-2.84;99.93;101438.91;5073258;28;20467;-65
2021/12/13 06:01:51;;;;;;;14.93;8.25;;;;;;;-2.92;99.72;101441.38;5072947;28;20139;-67
2021/12/13 06:04:24;;;;;;;13.93;7.30;;;;;;;-2.83;99.98;101434.66;5073259;28;20076;-66
2021/12/13 06:06:53;;;;;;;8.73;5.18;;;;;;;-2.83;99.73;101434.66;5073464;28;20080;-73
2021/12/13 06:09:47;;;;;;;6.57;4.88;;;;;;;-2.79;99.16;101428.78;5072956;28;20131;-68
2021/12/13 06:12:24;;;;;;;11.18;6.30;;;;;;;-2.83;99.61;101414.28;5073525;28;20467;-63
2021/12/13 06:14:52;;;;;;;7.88;4.80;;;;;;;-2.86;99.71;101423.59;5072855;28;20053;-63
2021/12/13 06:17:28;;;;;;;12.73;6.80;;;;;;;-2.88;99.85;101417.66;5072941;28;20066;-63
2021/12/13 06:19:59;;;;;;;10.68;6.60;;;;;;;-2.85;99.68;101415.13;5072652;28;20075;-63
2021/12/13 06:22:28;;;;;;;6.65;4.30;;;;;;;-2.87;99.74;101411.72;5072656;28;20658;-67
2021/12/13 06:24:58;;;;;;;13.57;7.35;;;;;;;-2.88;99.78;101415.09;5071952;28;20044;-66
2021/12/13 06:27:29;;;;;;;12.38;5.60;;;;;;;-2.84;99.31;101413.44;5072913;28;20488;-64
2021/12/13 06:30:11;;;;;;;7.80;4.88;;;;;;;-2.89;99.40;101410.84;5072587;28;20124;-67
2021/12/13 06:32:44;;;;;;;8.77;5.63;;;;;;;-2.90;99.50;101415.94;5072609;28;20048;-63
2021/12/13 06:35:43;;;;;;;6.63;4.40;;;;;;;-2.88;99.60;101411.69;5072929;28;20151;-66
2021/12/13 06:38:36;;;;;;;6.40;4.00;;;;;;;-2.90;99.60;101411.69;5010900;28;20133;-63
2021/12/13 06:41:08;;;;;;;8.32;5.07;;;;;;;-2.87;99.76;101419.34;5067303;28;20477;-63
2021/12/13 06:43:40;;;;;;;12.38;7.55;;;;;;;-2.87;99.27;101415.97;5072447;28;20054;-71
2021/12/13 06:46:11;;;;;;;9.27;5.35;;;;;;;-2.88;99.63;101410.03;5072783;28;20048;-63
2021/12/13 06:48:43;;;;;;;8.35;5.03;;;;;;;-2.92;99.68;101408.25;5072640;28;20127;-76
2021/12/13 06:51:13;;;;;;;7.53;4.90;;;;;;;-2.86;99.46;101403.22;5072418;28;20131;-77
2021/12/13 06:53:41;;;;;;;12.82;7.20;;;;;;;-2.87;99.75;101404.06;5072397;28;20127;-76
2021/12/13 06:56:22;;;;;;;2.30;2.03;;;;;;;-2.88;99.18;101399.84;5072637;28;20494;-78
2021/12/13 06:58:54;;;;;;;10.50;5.07;;;;;;;-2.86;99.31;101402.38;5072494;28;20442;-77
2021/12/13 07:01:22;;;;;;;6.90;4.53;;;;;;;-2.91;99.65;101394.69;5072420;28;20047;-67
2021/12/13 07:03:58;;;;;;;7.93;4.70;;;;;;;-2.89;99.61;101397.25;5072189;28;20084;-76
2021/12/13 07:06:26;;;;;;;11.90;6.25;;;;;;;-2.88;100.00;101404.91;5072632;28;20127;-75
2021/12/13 07:09:14;;;;;;;6.32;3.85;;;;;;;-2.84;99.72;101403.25;5072270;28;20044;-66
2021/12/13 07:11:52;;;;;;;7.80;4.97;;;;;;;-2.86;99.76;101398.13;5072896;28;20044;-64
2021/12/13 07:14:22;;;;;;;5.70;4.13;;;;;;;-2.83;99.64;101397.31;5072221;28;20046;-63
2021/12/13 07:16:52;;;;;;;10.38;6.22;;;;;;;-2.85;99.34;101394.75;5072568;28;20072;-66
2021/12/13 07:19:23;;;;;;;8.02;5.55;;;;;;;-2.81;100.00;101390.53;5072261;28;20094;-73
2021/12/13 07:21:56;;;;;;;10.35;5.65;;;;;;;-2.85;99.64;101392.22;5072315;28;20127;-63
2021/12/13 07:24:40;;;;;;;5.53;4.55;;;;;;;-2.86;100.00;101390.50;5072085;28;20048;-74
2021/12/13 07:27:10;;;;;;;6.82;4.00;;;;;;;-2.81;99.79;101390.53;5072233;28;20052;-77
2021/12/13 07:29:50;;;;;;;6.93;5.10;;;;;;;-2.81;99.69;101387.16;5072461;28;20048;-77
2021/12/13 07:32:23;;;;;;;5.47;3.88;;;;;;;-2.80;99.84;101392.28;5071883;28;20044;-77
2021/12/13 07:35:06;;;;;;;6.93;5.43;;;;;;;-2.75;99.69;101390.63;5072002;28;20135;-74
2021/12/13 07:37:46;;;;;;;12.85;6.82;;;;;;;-2.74;99.94;101391.47;5075836;28;20562;-67
2021/12/13 07:40:40;;;;;;;7.68;4.82;;;;;;;-2.72;99.82;101388.09;5076098;28;20135;-67
2021/12/13 07:43:20;;;;;;;14.45;6.35;;;;;;;-2.73;99.76;101394.00;5073701;28;20052;-64
2021/12/13 07:45:54;;;;;;;7.93;4.57;;;;;;;-2.70;99.74;101386.44;5075712;28;20136;-76
2021/12/13 07:48:24;;;;;;;8.43;5.07;;;;;;;-2.72;99.48;101388.09;5075755;28;20048;-77
2021/12/13 07:51:06;;;;;;;13.23;7.43;;;;;;;-2.69;100.00;101390.66;5075730;28;20048;-74
2021/12/13 07:53:49;;;;;;;12.02;5.90;;;;;;;-2.73;99.91;101391.47;5075787;28;20409;-70
2021/12/13 07:56:22;;;;;;;13.85;7.65;;;;;;;-2.70;99.65;101394.06;5075778;28;20131;-78
2021/12/13 07:58:58;;;;;;;11.27;6.38;;;;;;;-2.66;99.61;101388.16;5075389;28;20051;-63
2021/12/13 08:01:30;;;;;;;5.05;3.17;;;;;;;-2.63;99.77;101390.72;5075380;28;20485;-76
2021/12/13 08:04:07;;;;;;;7.30;3.83;;;;;;;-2.63;99.81;101387.31;5075193;28;20090;-72
2021/12/13 08:06:38;;;;;;;10.30;6.78;;;;;;;-2.62;99.87;101386.50;5075841;28;20047;-77
2021/12/13 08:09:08;;;;;;;6.38;4.68;;;;;;;-2.58;99.90;101395.00;5075555;28;20062;-67
2021/12/13 08:11:41;;;;;;;9.93;6.00;;;;;;;-2.59;99.71;101390.75;5076009;28;20048;-68
2021/12/13 08:14:09;;;;;;;13.35;7.00;;;;;;;-2.59;99.70;101389.06;5075464;28;20143;-74
2021/12/13 08:16:42;;;;;;;13.20;6.82;;;;;;;-2.52;99.51;101384.88;5075329;28;20135;-75
2021/12/13 08:19:15;;;;;;;7.68;5.47;;;;;;;-2.53;99.84;101391.66;5075484;28;20060;-63
2021/12/13 08:21:47;;;;;;;9.75;6.05;;;;;;;-2.53;99.59;101389.13;5075431;28;20051;-77
2021/12/13 08:24:26;;;;;;;8.43;4.95;;;;;;;-2.49;99.71;101383.22;5075245;28;20048;-76
2021/12/13 08:27:08;;;;;;;8.82;5.45;;;;;;;-2.47;99.44;101380.66;5075110;28;20041;-63
2021/12/13 08:29:38;;;;;;;10.80;6.13;;;;;;;-2.49;99.91;101387.44;5074967;28;20132;-67
2021/12/13 08:32:11;;;;;;;7.97;4.40;;;;;;;-2.43;99.81;101379.84;5074911;28;20135;-63
2021/12/13 08:34:44;;;;;;;10.20;5.28;;;;;;;-2.41;99.82;101381.59;5074863;28;20055;-71
2021/12/13 08:37:16;;;;;;;8.75;5.13;;;;;;;-2.38;99.55;101385.84;5074899;28;20163;-68
2021/12/13 08:39:46;;;;;;;8.10;4.07;;;;;;;-2.37;99.70;101386.69;5074937;28;20058;-64
2021/12/13 08:42:18;;;;;;;10.25;6.50;;;;;;;-2.36;99.74;101379.06;5074806;28;20057;-74
2021/12/13 08:44:52;;;;;;;8.70;5.18;;;;;;;-2.38;99.79;101378.19;5074787;28;20135;-67
2021/12/13 08:47:25;;;;;;;8.68;5.53;;;;;;;-2.39;99.97;101379.03;5073939;28;20079;-74
2021/12/13 08:49:57;;;;;;;12.13;7.15;;;;;;;-2.34;99.89;101377.38;5074560;28;20050;-66
2021/12/13 08:52:26;;;;;;;12.00;5.80;;;;;;;-2.31;99.74;101376.53;5074451;28;20098;-64
2021/12/13 08:54:59;;;;;;;9.10;5.45;;;;;;;-2.30;99.66;101380.81;5074738;28;20048;-70
2021/12/13 08:57:50;;;;;;;10.15;6.28;;;;;;;-2.27;99.91;101381.69;5074590;28;20049;-63
2021/12/13 09:00:40;;;;;;;11.48;6.60;;;;;;;-2.30;99.86;101379.09;5074279;28;20529;-63
2021/12/13 09:03:43;;;;;;;9.55;6.43;;;;;;;-2.29;99.72;101375.72;5074289;28;20140;-66
2021/12/13 09:06:25;;;;;;;13.35;7.53;;;;;;;-2.26;99.83;101365.56;5012505;28;20133;-64
2021/12/13 09:08:57;;;;;;;10.15;6.10;;;;;;;-2.22;100.00;101368.97;5012350;28;20046;-64
2021/12/13 09:11:31;;;;;;;10.27;5.97;;;;;;;-2.25;99.92;101362.16;5050102;28;20071;-67
2021/12/13 09:14:04;;;;;;;12.27;6.20;;;;;;;-2.22;99.87;101356.22;5074284;28;20045;-66
2021/12/13 09:16:45;;;;;;;11.02;6.55;;;;;;;-2.18;99.86;101350.31;5074033;28;20136;-70
2021/12/13 09:19:18;;;;;;;7.28;4.53;;;;;;;-2.20;99.86;101347.75;5074246;28;20044;-77
2021/12/13 09:21:49;;;;;;;6.45;4.25;;;;;;;-2.17;100.00;101346.91;5073955;28;20055;-73
2021/12/13 09:24:26;;;;;;;17.73;7.88;;;;;;;-2.15;99.97;101337.59;5073967;28;20581;-63
2021/12/13 09:26:57;;;;;;;13.98;7.75;;;;;;;-2.13;100.00;101338.47;5073982;28;20131;-70
2021/12/13 09:29:25;;;;;;;11.60;6.70;;;;;;;-2.13;99.98;101341.00;5074018;28;20045;-71
2021/12/13 09:31:53;;;;;;;9.48;5.38;;;;;;;-2.14;100.00;101329.09;5073690;28;20044;-66
2021/12/13 09:34:22;;;;;;;7.97;3.50;;;;;;;-2.13;100.00;101325.72;5074094;28;20083;-70
2021/12/13 09:36:53;;;;;;;11.13;6.75;;;;;;;-2.12;100.00;101334.19;5073756;28;20135;-77
2021/12/13 09:39:24;;;;;;;17.90;8.93;;;;;;;-2.11;99.99;101330.78;5074009;28;20072;-76
2021/12/13 09:41:58;;;;;;;10.38;6.53;;;;;;;-2.09;100.00;101332.50;5073350;28;20554;-74
2021/12/13 09:44:31;;;;;;;8.35;5.35;;;;;;;-2.09;100.00;101336.75;5073399;28;20110;-76
2021/12/13 09:47:05;;;;;;;11.93;6.70;;;;;;;-2.08;100.00;101339.34;5073815;28;20044;-73
2021/12/13 09:49:38;;;;;;;10.18;6.75;;;;;;;-2.07;100.00;101335.09;5073483;28;20044;-77
2021/12/13 09:52:11;;;;;;;7.57;5.38;;;;;;;-2.05;100.00;101334.25;5073446;28;20080;-76
2021/12/13 09:54:42;;;;;;;12.57;6.65;;;;;;;-2.04;100.00;101332.56;5073287;28;20087;-77
2021/12/13 09:57:13;;;;;;;5.32;4.10;;;;;;;-2.04;100.00;101332.56;5073435;28;20583;-76
2021/12/13 09:59:45;;;;;;;9.88;5.55;;;;;;;-2.01;100.00;101333.41;5072938;28;20474;-76
2021/12/13 10:02:16;;;;;;;11.98;6.35;;;;;;;-2.00;100.00;101337.69;5072967;28;20051;-72
2021/12/13 10:04:46;;;;;;;10.05;6.07;;;;;;;-2.02;100.00;101328.31;5073038;28;20142;-64
2021/12/13 10:07:20;;;;;;;13.05;6.47;;;;;;;-2.02;100.00;101330.88;5072933;28;20120;-68
2021/12/13 10:09:50;;;;;;;9.57;5.15;;;;;;;-1.99;100.00;101326.63;5073356;28;20468;-77
2021/12/13 10:12:21;;;;;;;13.25;8.15;;;;;;;-1.98;100.00;101328.34;5073732;28;20068;-73
2021/12/13 10:14:51;;;;;;;6.00;4.38;;;;;;;-1.98;100.00;101333.44;5073132;28;20135;-77
2021/12/13 10:17:22;;;;;;;5.82;4.13;;;;;;;-1.95;100.00;101326.63;5073322;28;20041;-77
2021/12/13 10:19:54;;;;;;;11.80;7.22;;;;;;;-1.97;100.00;101317.28;5073165;28;20368;-78
2021/12/13 10:22:26;;;;;;;16.20;8.02;;;;;;;-1.93;100.00;101318.16;5072796;28;20510;-63
2021/12/13 10:24:57;;;;;;;15.30;8.82;;;;;;;-1.91;100.00;101320.72;5072987;28;20143;-76
2021/12/13 10:27:25;;;;;;;24.90;7.13;;;;;;;-1.88;100.00;101311.38;5072829;28;20083;-78
2021/12/13 10:29:55;;;;;;;9.95;6.30;;;;;;;-1.90;100.00;101313.09;5072986;28;20135;-78
2021/12/13 10:32:25;;;;;;;6.38;4.32;;;;;;;-1.88;100.00;101305.44;5072848;28;20076;-77
2021/12/13 10:34:59;;;;;;;7.10;4.85;;;;;;;-1.84;100.00;101309.72;5073188;28;20044;-76
2021/12/13 10:37:29;;;;;;;9.93;6.22;;;;;;;-1.85;100.00;101301.22;5072631;28;20538;-72
2021/12/13 10:39:59;;;;;;;8.75;6.10;;;;;;;-1.83;100.00;101311.41;5072735;28;20079;-77
2021/12/13 10:42:32;;;;;;;11.93;5.35;;;;;;;-1.84;100.00;101309.72;5072387;28;20044;-78
2021/12/13 10:45:00;;;;;;;6.47;4.13;;;;;;;-1.80;100.00;101303.75;5072443;28;20044;-76
2021/12/13 10:47:30;;;;;;;14.52;7.40;;;;;;;-1.81;100.00;101296.97;5072518;28;20131;-78
2021/12/13 10:50:00;;;;;;;10.80;4.95;;;;;;;-1.77;100.00;101296.16;5072413;28;20143;-77
2021/12/13 10:52:31;;;;;;;5.50;4.35;;;;;;;-1.80;100.00;101296.09;5072353;28;20075;-78
2021/12/13 10:55:02;;;;;;;12.52;7.30;;;;;;;-1.83;100.00;101298.66;5072188;28;20045;-73
2021/12/13 10:57:32;;;;;;;7.22;4.53;;;;;;;-1.82;100.00;101297.81;5072145;28;20048;-75
2021/12/13 11:00:00;;;;;;;16.38;8.02;;;;;;;-1.82;100.00;101292.72;5072178;28;20075;-66
2021/12/13 11:02:33;;;;;;;12.32;6.82;;;;;;;-1.79;100.00;101292.72;5072081;28;20044;-77
2021/12/13 11:05:18;;;;;;;12.48;7.55;;;;;;;-1.80;100.00;101293.56;5072043;28;20143;-75
2021/12/13 11:07:47;;;;;;;10.23;6.00;;;;;;;-1.80;100.00;101293.56;5072112;28;20056;-77
2021/12/13 11:10:20;;;;;;;12.90;5.70;;;;;;;-1.84;100.00;101286.75;5071883;28;20052;-77
2021/12/13 11:12:50;;;;;;;11.10;6.20;;;;;;;-1.81;100.00;101292.72;5072954;28;20127;-78
2021/12/13 11:15:21;;;;;;;17.80;9.13;;;;;;;-1.80;100.00;101288.44;5072503;28;20098;-77
2021/12/13 11:17:49;;;;;;;10.95;5.68;;;;;;;-1.79;100.00;101288.47;5072419;28;20131;-77
2021/12/13 11:20:20;;;;;;;14.30;7.07;;;;;;;-1.80;100.00;101289.34;5072027;28;20143;-78
2021/12/13 11:22:51;;;;;;;9.40;5.50;;;;;;;-1.78;100.00;101286.78;5071919;28;20136;-78
2021/12/13 11:25:21;;;;;;;13.85;6.28;;;;;;;-1.77;100.00;101275.75;5071751;28;20076;-77
2021/12/13 11:27:48;;;;;;;8.43;5.30;;;;;;;-1.79;100.00;101275.72;5072055;28;20072;-66
2021/12/13 11:30:20;;;;;;;16.10;8.95;;;;;;;-1.84;100.00;101268.91;5071859;28;20076;-75
2021/12/13 11:33:24;;;;;;;13.02;5.05;;;;;;;-1.81;100.00;101268.91;5071949;28;20399;-67
2021/12/13 11:36:28;;;;;;;14.63;7.35;;;;;;;-1.82;100.00;101268.06;5072191;28;20080;-67
2021/12/13 11:39:28;;;;;;;14.82;7.60;;;;;;;-1.85;100.00;101269.72;5072036;28;20054;-64
2021/12/13 11:42:28;;;;;;;9.98;5.72;;;;;;;-1.84;100.00;101263.78;5051017;28;20052;-78
2021/12/13 11:45:20;;;;;;;13.52;6.22;;;;;;;-1.83;100.00;101258.69;5067009;28;20477;-74
2021/12/13 11:48:17;;;;;;;8.55;4.90;;;;;;;-1.84;100.00;101261.25;5071944;28;20045;-76
2021/12/13 11:51:46;;;;;;;14.10;7.00;;;;;;;-1.82;100.00;101257.00;5071677;28;20051;-75
2021/12/13 11:55:04;;;;;;;15.75;6.95;;;;;;;-1.79;100.00;101250.22;5071933;28;20084;-77